CheckWX is a tool to help pilots better visualize weather data.  It is not intended as a substitute for an official pre-flight weather briefing.

06:46:27 UTC

EGLC METAR
London City Airport
London, United Kingdom
Current

26 mins ago

EGLC 030620Z AUTO 33001KT 9999 OVC043 09/02 Q1017
Observed
Apr-3 @ 06:20 UTC
Wind
  • 330° at 1 KTS
Visibility
10,000+ meters
Flight Rules
VFR
Cloud Levels
  • Overcast at 4,300' AGL
Temperature
C / 48°F
Dewpoint
C / 36°F
Humidity
62%
Altimeter
30.03" Hg
Pressure
1016.92 hPa
Previous

56 mins ago

EGLC 030550Z AUTO VRB02KT 9999 BKN045 09/02 Q1016
Observed
Apr-3 @ 05:50 UTC
Wind
  • Variable at 2 KTS
Visibility
10,000+ meters
Flight Rules
VFR
Cloud Levels
  • Broken at 4,500' AGL
Temperature
C / 48°F
Dewpoint
C / 36°F
Humidity
62%
Altimeter
30" Hg
Pressure
1015.92 hPa
Previous

1 hour ago

EGLC 030520Z AUTO 30004KT 9999 BKN043 09/01 Q1016
Observed
Apr-3 @ 05:20 UTC
Wind
  • 300° at 4 KTS
Visibility
10,000+ meters
Flight Rules
VFR
Cloud Levels
  • Broken at 4,300' AGL
Temperature
C / 48°F
Dewpoint
C / 34°F
Humidity
58%
Altimeter
30" Hg
Pressure
1015.92 hPa